Time;durP1;ratioP1;P1;durP2;ratioP2;P2;SDS_P1;SDS_P2;PMS_P1;PMS_P2;Temp;Humidity;BMP_temperature;BMP_pressure;BME280_temperature;BME280_humidity;BME280_pressure;Samples;Min_cycle;Max_cycle;Signal;HPM_P1;HPM_P2
2023/05/14 00:02:22;;;;;;;5.47;4.97;;;19.30;39.20;;;;;;5117686;28;20151;-82
2023/05/14 00:04:48;;;;;;;4.85;4.45;;;19.30;39.20;;;;;;5135430;28;20160;-82
2023/05/14 00:07:13;;;;;;;5.55;5.05;;;19.30;39.30;;;;;;5101112;28;20517;-83
2023/05/14 00:09:39;;;;;;;5.32;4.93;;;19.30;39.30;;;;;;5117816;28;20513;-82
2023/05/14 00:12:05;;;;;;;5.90;5.40;;;19.30;39.30;;;;;;5119881;27;20230;-83
2023/05/14 00:14:31;;;;;;;4.85;4.45;;;19.30;39.40;;;;;;5104614;27;20235;-82
2023/05/14 00:16:58;;;;;;;5.40;4.90;;;19.30;39.50;;;;;;5104088;27;20203;-83
2023/05/14 00:19:24;;;;;;;5.00;4.60;;;19.30;39.30;;;;;;5080536;28;20238;-83
2023/05/14 00:21:50;;;;;;;5.68;5.15;;;19.30;39.30;;;;;;5080963;28;20148;-83
2023/05/14 00:24:15;;;;;;;5.43;4.90;;;19.30;39.60;;;;;;5081166;28;20161;-83
2023/05/14 00:26:41;;;;;;;6.30;5.50;;;19.30;39.70;;;;;;5097759;28;20160;-81
2023/05/14 00:29:07;;;;;;;5.22;4.72;;;19.40;39.80;;;;;;5097366;28;20188;-82
2023/05/14 00:31:33;;;;;;;4.82;4.43;;;19.30;39.20;;;;;;5097043;28;20156;-82
2023/05/14 00:34:00;;;;;;;5.60;5.10;;;19.30;39.20;;;;;;5097094;28;20685;-83
2023/05/14 00:36:27;;;;;;;5.70;5.20;;;19.40;39.30;;;;;;5097113;28;20180;-83
2023/05/14 00:38:52;;;;;;;5.25;4.80;;;19.30;39.20;;;;;;5080151;28;20197;-83
2023/05/14 00:41:19;;;;;;;5.03;4.63;;;19.30;40.00;;;;;;5080610;28;20153;-82
2023/05/14 00:43:45;;;;;;;5.30;4.90;;;19.30;39.30;;;;;;5080463;28;20165;-83
2023/05/14 00:46:11;;;;;;;5.57;5.07;;;19.30;39.30;;;;;;5097210;28;20160;-83
2023/05/14 00:48:36;;;;;;;5.43;4.93;;;19.30;39.30;;;;;;5080282;28;20176;-82
2023/05/14 00:51:03;;;;;;;5.95;5.35;;;19.30;39.30;;;;;;5080060;28;20575;-84
2023/05/14 00:53:29;;;;;;;5.80;5.30;;;19.30;39.30;;;;;;5097176;28;20168;-83
2023/05/14 00:55:55;;;;;;;5.47;4.97;;;19.30;39.30;;;;;;5063335;28;20152;-83
2023/05/14 00:58:21;;;;;;;5.13;4.68;;;19.30;39.30;;;;;;5079597;28;20188;-83
2023/05/14 01:00:48;;;;;;;5.68;5.18;;;19.30;39.30;;;;;;5096845;28;20148;-83
2023/05/14 01:03:14;;;;;;;5.82;5.22;;;19.30;39.30;;;;;;5080018;28;20153;-82
2023/05/14 01:05:54;;;;;;;5.70;5.10;;;19.30;39.30;;;;;;5096796;28;20164;-83
2023/05/14 01:08:54;;;;;;;5.22;4.82;;;19.30;39.40;;;;;;5098103;28;20235;-82
2023/05/14 01:11:39;;;;;;;5.53;5.03;;;19.30;39.40;;;;;;5098408;28;20172;-83
2023/05/14 01:14:44;;;;;;;6.07;5.50;;;19.30;39.50;;;;;;5097181;28;20152;-83
2023/05/14 01:17:11;;;;;;;5.93;5.40;;;19.20;39.40;;;;;;5101581;27;20245;-83
2023/05/14 01:19:41;;;;;;;5.40;5.00;;;19.30;39.50;;;;;;5120774;27;20191;-83
2023/05/14 01:22:07;;;;;;;6.43;5.53;;;19.30;39.50;;;;;;5120414;27;20151;-83
2023/05/14 01:24:33;;;;;;;5.72;5.22;;;19.30;39.50;;;;;;5119898;27;20561;-83
2023/05/14 01:27:06;;;;;;;5.55;5.05;;;19.30;39.60;;;;;;5139063;27;20179;-83
2023/05/14 01:29:33;;;;;;;5.60;5.10;;;19.30;39.60;;;;;;5103118;27;20163;-82
2023/05/14 01:31:58;;;;;;;5.50;5.05;;;19.20;39.50;;;;;;5103743;27;20621;-83
2023/05/14 01:34:24;;;;;;;4.90;4.50;;;19.30;39.50;;;;;;5120385;27;20203;-83
2023/05/14 01:36:50;;;;;;;4.90;4.50;;;19.30;39.50;;;;;;5120035;27;20147;-83
2023/05/14 01:39:16;;;;;;;6.03;5.43;;;19.30;39.40;;;;;;5119885;27;20637;-82
2023/05/14 01:41:42;;;;;;;5.90;5.40;;;19.30;39.50;;;;;;5138756;27;20155;-83
2023/05/14 01:44:08;;;;;;;4.97;4.57;;;19.30;39.50;;;;;;5118102;27;20152;-82
2023/05/14 01:46:34;;;;;;;5.75;5.25;;;19.30;39.60;;;;;;5118110;27;20159;-82
2023/05/14 01:49:00;;;;;;;5.30;4.80;;;19.20;39.50;;;;;;5117752;27;20618;-82
2023/05/14 01:51:26;;;;;;;5.70;5.20;;;19.30;39.60;;;;;;5117802;27;20158;-82
2023/05/14 01:53:51;;;;;;;5.97;5.47;;;19.30;39.60;;;;;;5117891;27;20156;-82
2023/05/14 01:56:18;;;;;;;5.38;4.88;;;19.30;39.60;;;;;;5136310;27;20652;-82
2023/05/14 01:58:44;;;;;;;5.90;5.38;;;19.20;39.60;;;;;;5117556;27;20187;-82
2023/05/14 02:01:10;;;;;;;5.63;5.10;;;19.20;39.60;;;;;;5117493;27;20205;-82
2023/05/14 02:03:35;;;;;;;5.93;5.43;;;19.20;39.60;;;;;;5117825;27;20159;-82
2023/05/14 02:06:01;;;;;;;5.28;4.88;;;19.20;39.60;;;;;;5135816;27;20537;-82
2023/05/14 02:08:26;;;;;;;5.70;5.20;;;19.20;39.70;;;;;;5117457;27;20195;-82
2023/05/14 02:10:52;;;;;;;6.20;5.60;;;19.20;39.60;;;;;;5117516;27;20509;-82
2023/05/14 02:13:18;;;;;;;5.80;5.30;;;19.20;40.30;;;;;;5135638;27;20156;-82
2023/05/14 02:15:44;;;;;;;5.70;5.20;;;19.20;39.60;;;;;;5117339;27;20153;-82
2023/05/14 02:18:09;;;;;;;5.63;5.13;;;19.30;39.70;;;;;;5116890;27;20254;-82
2023/05/14 02:20:35;;;;;;;5.70;5.20;;;19.20;39.70;;;;;;5117470;27;20517;-82
2023/05/14 02:23:00;;;;;;;5.50;5.00;;;19.20;39.70;;;;;;5100150;27;20167;-82
2023/05/14 02:25:26;;;;;;;5.63;5.13;;;19.20;39.60;;;;;;5117124;27;20230;-82
2023/05/14 02:27:52;;;;;;;5.60;5.10;;;19.20;39.70;;;;;;5117067;27;20547;-82
2023/05/14 02:30:17;;;;;;;5.78;5.28;;;19.20;39.70;;;;;;5135314;27;20155;-81
2023/05/14 02:32:43;;;;;;;5.45;4.95;;;19.20;39.70;;;;;;5116964;27;20223;-82
2023/05/14 02:35:09;;;;;;;5.15;4.72;;;19.20;39.70;;;;;;5115807;27;20194;-82
2023/05/14 02:37:34;;;;;;;5.38;4.88;;;19.20;39.70;;;;;;5135135;27;20513;-82
2023/05/14 02:40:00;;;;;;;5.13;4.70;;;19.20;39.70;;;;;;5135001;27;20186;-82
2023/05/14 02:42:26;;;;;;;5.63;5.03;;;19.20;39.70;;;;;;5116815;27;20174;-82
2023/05/14 02:44:51;;;;;;;5.63;5.13;;;19.20;39.80;;;;;;5117273;27;20187;-82
2023/05/14 02:47:17;;;;;;;5.20;4.78;;;19.20;39.70;;;;;;5099756;27;20536;-82
2023/05/14 02:49:43;;;;;;;5.10;4.70;;;19.20;39.80;;;;;;5116594;27;20159;-82
2023/05/14 02:52:09;;;;;;;5.40;4.93;;;19.20;39.80;;;;;;5135001;27;20235;-82
2023/05/14 02:54:34;;;;;;;5.47;4.97;;;19.20;39.80;;;;;;5134889;27;20609;-82
2023/05/14 02:57:00;;;;;;;5.72;5.22;;;19.20;39.80;;;;;;5116624;27;20529;-82
2023/05/14 02:59:26;;;;;;;5.40;4.90;;;19.20;39.80;;;;;;5099397;27;20339;-82
2023/05/14 03:01:51;;;;;;;5.55;5.10;;;19.20;39.90;;;;;;5099364;27;20170;-82
2023/05/14 03:04:17;;;;;;;5.72;5.22;;;19.20;39.90;;;;;;5134720;27;20160;-82
2023/05/14 03:06:43;;;;;;;5.03;4.63;;;19.10;39.80;;;;;;5116491;27;20148;-82
2023/05/14 03:09:08;;;;;;;5.25;4.75;;;19.20;39.80;;;;;;5134653;27;20160;-82
2023/05/14 03:11:34;;;;;;;5.53;5.03;;;19.10;39.80;;;;;;5116294;27;20159;-82
2023/05/14 03:14:00;;;;;;;5.55;5.05;;;19.20;39.90;;;;;;5116238;27;20163;-82
2023/05/14 03:16:26;;;;;;;5.47;4.97;;;19.20;39.90;;;;;;5116255;27;20156;-82
2023/05/14 03:18:52;;;;;;;5.35;4.85;;;19.20;39.90;;;;;;5115893;27;20236;-82
2023/05/14 03:21:17;;;;;;;5.05;4.65;;;19.10;39.80;;;;;;5134461;27;20216;-82
2023/05/14 03:23:43;;;;;;;5.20;4.70;;;19.10;39.90;;;;;;5134393;27;20513;-81
2023/05/14 03:26:09;;;;;;;5.60;5.10;;;19.10;39.90;;;;;;5116092;27;20163;-82
2023/05/14 03:28:34;;;;;;;5.18;4.78;;;19.10;39.90;;;;;;5099381;27;20520;-82
2023/05/14 03:31:00;;;;;;;5.38;4.88;;;19.10;39.90;;;;;;5134347;27;20151;-81
2023/05/14 03:33:26;;;;;;;5.57;5.07;;;19.10;39.90;;;;;;5116050;27;20152;-82
2023/05/14 03:35:51;;;;;;;5.75;5.25;;;19.10;39.90;;;;;;5134254;28;20155;-81
2023/05/14 03:38:17;;;;;;;5.65;5.15;;;19.10;39.90;;;;;;5115862;28;20209;-82
2023/05/14 03:40:43;;;;;;;5.63;5.13;;;19.10;39.90;;;;;;5134222;28;20159;-82
2023/05/14 03:43:10;;;;;;;5.57;5.07;;;19.20;39.90;;;;;;5134205;28;20170;-82
2023/05/14 03:45:35;;;;;;;5.40;4.90;;;19.10;39.80;;;;;;5134187;27;20212;-82
2023/05/14 03:48:01;;;;;;;5.78;5.28;;;19.10;39.80;;;;;;5103410;27;20574;-82
2023/05/14 03:50:27;;;;;;;5.53;5.03;;;19.20;39.90;;;;;;5138481;27;20234;-81
2023/05/14 03:52:53;;;;;;;5.45;4.95;;;19.20;39.90;;;;;;5138340;27;20148;-82
2023/05/14 03:55:20;;;;;;;5.38;4.97;;;19.20;39.90;;;;;;5119980;27;20648;-82
2023/05/14 03:57:46;;;;;;;5.50;5.00;;;19.20;39.80;;;;;;5138194;27;20224;-82
2023/05/14 04:00:12;;;;;;;5.88;5.38;;;19.20;39.80;;;;;;5119885;27;20143;-82
2023/05/14 04:02:38;;;;;;;5.47;5.07;;;19.20;39.80;;;;;;5119949;27;20179;-82
2023/05/14 04:05:04;;;;;;;5.15;4.75;;;19.20;39.80;;;;;;5102725;27;20247;-82
2023/05/14 04:07:29;;;;;;;5.78;5.22;;;19.20;39.90;;;;;;5138112;27;20169;-82
2023/05/14 04:09:55;;;;;;;5.35;4.90;;;19.20;39.80;;;;;;5119765;27;20178;-82
2023/05/14 04:12:21;;;;;;;6.32;5.72;;;19.20;39.90;;;;;;5138010;27;20562;-82
2023/05/14 04:14:46;;;;;;;5.88;5.38;;;19.10;39.70;;;;;;5137968;27;20152;-82
2023/05/14 04:17:12;;;;;;;5.40;4.97;;;19.20;39.80;;;;;;5119405;27;20151;-81
2023/05/14 04:19:39;;;;;;;5.45;5.05;;;19.20;39.80;;;;;;5137612;27;20211;-82
2023/05/14 04:22:05;;;;;;;5.40;4.90;;;19.20;39.70;;;;;;5119347;27;20637;-82
2023/05/14 04:24:30;;;;;;;5.22;4.80;;;19.20;39.70;;;;;;5119528;27;20160;-82
2023/05/14 04:26:56;;;;;;;5.32;4.82;;;19.30;39.70;;;;;;5137696;27;20239;-82
2023/05/14 04:29:22;;;;;;;5.40;4.90;;;19.30;39.60;;;;;;5137667;27;20160;-82
2023/05/14 04:31:48;;;;;;;5.40;4.90;;;19.30;39.60;;;;;;5137694;27;20155;-82
2023/05/14 04:34:14;;;;;;;6.32;5.05;;;19.30;39.60;;;;;;5137654;27;20238;-83
2023/05/14 04:36:40;;;;;;;5.20;4.80;;;19.30;39.60;;;;;;5102118;27;20680;-82
2023/05/14 04:39:05;;;;;;;5.60;5.10;;;19.30;40.30;;;;;;5137498;27;20199;-82
2023/05/14 04:41:31;;;;;;;5.25;4.85;;;19.30;39.60;;;;;;5137652;27;20221;-82
2023/05/14 04:43:58;;;;;;;5.25;4.85;;;19.30;39.60;;;;;;5137724;27;20187;-81
2023/05/14 04:46:24;;;;;;;5.47;5.00;;;19.40;39.60;;;;;;5119302;27;20606;-82
2023/05/14 04:48:50;;;;;;;5.18;4.78;;;19.40;39.50;;;;;;5137317;27;20231;-82
2023/05/14 04:51:16;;;;;;;5.95;5.45;;;19.40;39.40;;;;;;5137226;27;20246;-82
2023/05/14 04:53:42;;;;;;;5.22;4.82;;;19.40;39.40;;;;;;5118916;27;20179;-82
2023/05/14 04:56:07;;;;;;;5.18;4.70;;;19.40;39.40;;;;;;5118901;27;20561;-82
2023/05/14 04:58:33;;;;;;;5.75;5.25;;;19.50;39.40;;;;;;5117659;27;20183;-82
2023/05/14 05:00:59;;;;;;;5.47;4.97;;;19.50;39.40;;;;;;5118660;27;20155;-82
2023/05/14 05:03:24;;;;;;;4.95;4.55;;;19.40;39.40;;;;;;5102086;27;20231;-83
2023/05/14 05:05:50;;;;;;;5.72;5.22;;;19.50;39.40;;;;;;5102243;27;20152;-83
2023/05/14 05:08:16;;;;;;;5.50;5.00;;;19.40;39.40;;;;;;5136888;27;20151;-83
2023/05/14 05:10:42;;;;;;;5.30;4.90;;;19.50;39.40;;;;;;5118549;27;20155;-83
2023/05/14 05:13:07;;;;;;;5.20;4.80;;;19.40;39.40;;;;;;5118717;27;20155;-83
2023/05/14 05:15:33;;;;;;;5.30;4.90;;;19.40;39.40;;;;;;5118572;27;20564;-83
2023/05/14 05:18:02;;;;;;;5.30;4.90;;;19.40;39.40;;;;;;5097741;28;20273;-83
2023/05/14 05:20:28;;;;;;;5.22;4.72;;;19.50;39.50;;;;;;5114504;28;20646;-83
2023/05/14 05:22:54;;;;;;;5.60;5.10;;;19.50;39.40;;;;;;5080248;28;20202;-83
2023/05/14 05:25:20;;;;;;;5.60;5.10;;;19.50;39.40;;;;;;5114112;28;20187;-82
2023/05/14 05:27:46;;;;;;;5.57;5.07;;;19.50;39.40;;;;;;5097131;28;20171;-82
2023/05/14 05:30:12;;;;;;;5.25;4.75;;;19.40;39.30;;;;;;5096776;28;20183;-82
2023/05/14 05:32:37;;;;;;;5.05;4.57;;;19.50;39.30;;;;;;5096825;28;20263;-82
2023/05/14 05:35:03;;;;;;;5.20;4.80;;;19.50;39.30;;;;;;5113846;28;20694;-82
2023/05/14 05:37:30;;;;;;;5.05;4.65;;;19.50;39.30;;;;;;5113794;28;20160;-82
2023/05/14 05:39:56;;;;;;;5.55;5.05;;;19.60;39.30;;;;;;5063415;28;20294;-82
2023/05/14 05:42:21;;;;;;;5.45;5.00;;;19.60;39.20;;;;;;5096657;28;20293;-82
2023/05/14 05:44:47;;;;;;;5.13;4.63;;;19.60;39.30;;;;;;5096769;28;20229;-82
2023/05/14 05:47:13;;;;;;;5.20;4.70;;;19.60;39.20;;;;;;5079871;28;20607;-82
2023/05/14 05:49:38;;;;;;;5.55;4.90;;;19.60;39.30;;;;;;5055702;28;20281;-82
2023/05/14 05:52:04;;;;;;;5.45;5.00;;;19.60;39.30;;;;;;5038797;28;20184;-82
2023/05/14 05:54:31;;;;;;;5.22;4.82;;;19.60;39.30;;;;;;5093055;28;20700;-82
2023/05/14 05:56:57;;;;;;;5.68;5.18;;;19.60;39.30;;;;;;5093176;28;20642;-82
2023/05/14 05:59:23;;;;;;;5.78;5.20;;;19.50;39.20;;;;;;5092850;28;20670;-82
2023/05/14 06:01:49;;;;;;;5.82;5.32;;;19.60;39.30;;;;;;5076393;28;20164;-82
2023/05/14 06:04:15;;;;;;;5.93;5.43;;;19.60;39.20;;;;;;5093080;28;20572;-82
2023/05/14 06:06:41;;;;;;;5.13;4.72;;;19.70;39.20;;;;;;5093059;28;20160;-82
2023/05/14 06:09:07;;;;;;;5.47;5.05;;;19.70;39.30;;;;;;5092614;28;20185;-83
2023/05/14 06:11:34;;;;;;;5.30;4.90;;;19.70;39.20;;;;;;5076046;28;20523;-82
2023/05/14 06:13:59;;;;;;;5.18;4.78;;;19.70;39.10;;;;;;5092495;28;20643;-82
2023/05/14 06:16:25;;;;;;;5.03;4.63;;;19.70;39.10;;;;;;5076158;28;20230;-82
2023/05/14 06:18:53;;;;;;;5.50;5.00;;;19.70;39.10;;;;;;5075456;28;20586;-82
2023/05/14 06:21:19;;;;;;;5.55;4.72;;;19.70;39.10;;;;;;5092515;28;20175;-82
2023/05/14 06:23:44;;;;;;;5.25;4.85;;;19.70;39.20;;;;;;5096822;28;20161;-82
2023/05/14 06:26:10;;;;;;;5.10;4.70;;;19.70;39.10;;;;;;5096694;28;20152;-82
2023/05/14 06:28:36;;;;;;;5.63;5.13;;;19.80;39.00;;;;;;5113709;28;20148;-82
2023/05/14 06:31:01;;;;;;;5.57;5.07;;;19.80;38.90;;;;;;5113601;28;20159;-82
2023/05/14 06:33:29;;;;;;;4.90;4.50;;;19.90;39.00;;;;;;5113623;28;20519;-82
2023/05/14 06:35:58;;;;;;;5.00;4.57;;;19.80;39.00;;;;;;5113611;28;20243;-82
2023/05/14 06:38:24;;;;;;;5.70;5.20;;;19.70;39.10;;;;;;5113681;28;20746;-82
2023/05/14 06:40:50;;;;;;;5.43;4.93;;;19.80;39.00;;;;;;5114034;28;20207;-82
2023/05/14 06:43:16;;;;;;;5.20;4.80;;;19.90;38.90;;;;;;5096802;28;20529;-82
2023/05/14 06:45:41;;;;;;;4.97;4.57;;;19.80;39.00;;;;;;5113539;28;20164;-82
2023/05/14 06:48:08;;;;;;;5.38;4.97;;;19.90;39.00;;;;;;5113226;28;20533;-82
2023/05/14 06:50:34;;;;;;;5.25;4.75;;;19.90;38.90;;;;;;5113160;28;20205;-82
2023/05/14 06:53:00;;;;;;;5.28;4.88;;;19.80;38.90;;;;;;5099222;28;20168;-82
2023/05/14 06:55:26;;;;;;;4.97;4.57;;;19.90;38.90;;;;;;5096909;28;20148;-82
2023/05/14 06:57:51;;;;;;;5.57;4.95;;;19.90;38.90;;;;;;5096144;28;20153;-82
2023/05/14 07:00:18;;;;;;;5.22;4.82;;;19.90;39.00;;;;;;5113205;28;20148;-81
2023/05/14 07:02:43;;;;;;;5.10;4.70;;;19.90;39.00;;;;;;5113452;28;20157;-82
2023/05/14 07:05:09;;;;;;;5.47;4.97;;;19.90;38.90;;;;;;5113414;28;20167;-81
2023/05/14 07:07:35;;;;;;;5.13;4.72;;;19.90;38.90;;;;;;5096466;28;20286;-82
2023/05/14 07:10:01;;;;;;;5.63;5.20;;;20.00;38.90;;;;;;5114416;28;20152;-82
2023/05/14 07:12:26;;;;;;;4.93;4.53;;;20.00;38.90;;;;;;5113169;28;20172;-82
2023/05/14 07:14:52;;;;;;;5.15;4.70;;;20.10;38.70;;;;;;5096261;28;20621;-82
2023/05/14 07:17:18;;;;;;;6.18;4.47;;;20.10;38.50;;;;;;5096102;27;20240;-82
2023/05/14 07:19:43;;;;;;;5.20;4.80;;;20.10;38.60;;;;;;5116505;27;20653;-81
2023/05/14 07:22:09;;;;;;;5.63;4.82;;;20.00;38.60;;;;;;5116014;27;20629;-81
2023/05/14 07:24:35;;;;;;;5.18;4.78;;;20.10;38.70;;;;;;5116330;27;20226;-82
2023/05/14 07:27:01;;;;;;;4.70;4.30;;;20.00;38.60;;;;;;5116344;27;20155;-82
2023/05/14 07:29:28;;;;;;;5.20;4.70;;;20.10;38.60;;;;;;5099133;27;20155;-82
2023/05/14 07:31:54;;;;;;;4.80;4.28;;;20.20;38.60;;;;;;5099324;27;20565;-82
2023/05/14 07:34:20;;;;;;;5.30;4.80;;;20.10;38.50;;;;;;5116225;27;20666;-82
2023/05/14 07:36:45;;;;;;;4.90;4.50;;;20.10;38.50;;;;;;5116546;28;20160;-82
2023/05/14 07:39:12;;;;;;;5.85;4.80;;;20.10;38.60;;;;;;5134695;28;20282;-82
2023/05/14 07:41:38;;;;;;;5.40;5.00;;;20.00;38.80;;;;;;5099054;28;20652;-82
2023/05/14 07:44:04;;;;;;;4.90;4.50;;;19.90;39.20;;;;;;5116477;28;20163;-81
2023/05/14 07:46:29;;;;;;;5.07;4.68;;;19.70;39.80;;;;;;5116476;28;20231;-82
2023/05/14 07:48:55;;;;;;;5.18;4.70;;;19.60;40.40;;;;;;5116957;28;20163;-84
2023/05/14 07:51:21;;;;;;;4.97;4.57;;;19.50;40.70;;;;;;5101373;28;20151;-83
2023/05/14 07:53:47;;;;;;;5.18;4.68;;;19.50;40.80;;;;;;5119445;28;20616;-84
2023/05/14 07:56:14;;;;;;;5.05;4.50;;;19.50;41.10;;;;;;5101685;28;20155;-82
2023/05/14 07:58:42;;;;;;;5.03;4.63;;;19.40;41.40;;;;;;5119329;28;20202;-83
2023/05/14 08:01:08;;;;;;;5.50;5.00;;;19.50;42.00;;;;;;5102454;28;20160;-82
2023/05/14 08:03:34;;;;;;;5.18;4.78;;;19.40;41.60;;;;;;5118875;28;20602;-82
2023/05/14 08:06:04;;;;;;;5.05;4.38;;;19.50;41.80;;;;;;5102348;28;20262;-82
2023/05/14 08:08:29;;;;;;;5.07;4.68;;;19.50;42.40;;;;;;5121248;28;20155;-83
2023/05/14 08:10:56;;;;;;;5.20;4.70;;;19.50;42.00;;;;;;5124168;28;20151;-81
2023/05/14 08:13:23;;;;;;;4.85;4.45;;;19.40;42.30;;;;;;5108627;28;20167;-82
2023/05/14 08:15:48;;;;;;;4.68;4.28;;;19.40;43.10;;;;;;5107190;28;20155;-81
2023/05/14 08:18:14;;;;;;;4.90;4.50;;;19.40;42.90;;;;;;5104499;28;20223;-82
2023/05/14 08:20:42;;;;;;;5.03;4.53;;;19.40;42.80;;;;;;5088097;28;20179;-82
2023/05/14 08:23:08;;;;;;;5.00;4.60;;;19.40;42.80;;;;;;5104195;28;20159;-82
2023/05/14 08:25:34;;;;;;;4.40;4.03;;;19.40;42.90;;;;;;5088039;28;20199;-81
2023/05/14 08:28:00;;;;;;;4.88;4.47;;;19.50;43.20;;;;;;5122666;28;20160;-82
2023/05/14 08:30:27;;;;;;;4.90;4.50;;;19.40;43.30;;;;;;5088870;28;20168;-82
2023/05/14 08:32:53;;;;;;;4.78;4.38;;;19.40;43.70;;;;;;5107604;28;20157;-82
2023/05/14 08:35:19;;;;;;;5.10;4.63;;;19.40;43.80;;;;;;5110033;28;20259;-82
2023/05/14 08:37:44;;;;;;;4.85;4.45;;;19.40;43.90;;;;;;5091533;28;20189;-81
2023/05/14 08:40:11;;;;;;;4.90;4.50;;;19.40;44.20;;;;;;5091862;28;20191;-82
2023/05/14 08:42:40;;;;;;;4.85;4.45;;;19.40;43.80;;;;;;5091709;28;20172;-83
2023/05/14 08:45:21;;;;;;;4.95;4.55;;;19.40;44.30;;;;;;5090535;28;20187;-81
2023/05/14 08:47:49;;;;;;;4.20;3.90;;;19.40;44.40;;;;;;5094012;28;20168;-81
2023/05/14 08:50:15;;;;;;;4.57;4.18;;;19.40;44.40;;;;;;5106794;28;20160;-82
2023/05/14 08:52:41;;;;;;;4.43;4.03;;;19.40;44.40;;;;;;5090428;28;20614;-82
2023/05/14 08:55:07;;;;;;;4.85;4.45;;;19.50;44.50;;;;;;5123375;28;20156;-82
2023/05/14 08:57:33;;;;;;;5.07;4.68;;;19.50;44.20;;;;;;5089614;28;20167;-81
2023/05/14 08:59:59;;;;;;;4.70;4.30;;;19.50;44.30;;;;;;5088683;28;20192;-83
2023/05/14 09:02:27;;;;;;;4.80;4.40;;;19.40;44.50;;;;;;5106362;28;20633;-82
2023/05/14 09:04:56;;;;;;;4.55;4.15;;;19.50;44.80;;;;;;5088717;28;20172;-82
2023/05/14 09:07:22;;;;;;;5.03;4.53;;;19.50;45.00;;;;;;5105390;28;20152;-83
2023/05/14 09:09:49;;;;;;;4.80;4.40;;;19.50;44.90;;;;;;5105892;28;20209;-82
2023/05/14 09:12:16;;;;;;;4.60;4.20;;;19.50;45.00;;;;;;5106084;28;20156;-81
2023/05/14 09:14:43;;;;;;;4.70;4.30;;;19.60;45.00;;;;;;5105805;28;20537;-81
2023/05/14 09:17:11;;;;;;;4.68;4.28;;;19.60;44.80;;;;;;5088389;28;20262;-82
2023/05/14 09:19:40;;;;;;;4.90;4.50;;;19.70;44.80;;;;;;5084752;28;20221;-83
2023/05/14 09:22:11;;;;;;;4.85;4.45;;;19.70;44.80;;;;;;5085615;28;20160;-83
2023/05/14 09:24:37;;;;;;;5.13;4.63;;;19.70;44.90;;;;;;5084668;28;20153;-82
2023/05/14 09:27:05;;;;;;;4.60;4.20;;;19.70;45.00;;;;;;5086049;28;20184;-82
2023/05/14 09:29:30;;;;;;;4.88;4.47;;;19.60;45.10;;;;;;5084823;28;20169;-81
2023/05/14 09:31:58;;;;;;;4.75;4.35;;;19.60;45.20;;;;;;5086375;28;20203;-81
2023/05/14 09:34:26;;;;;;;4.80;4.40;;;19.60;45.30;;;;;;5086377;28;20187;-81
2023/05/14 09:36:57;;;;;;;4.80;4.40;;;19.70;45.10;;;;;;5069221;28;20563;-81
2023/05/14 09:39:23;;;;;;;4.93;4.53;;;19.70;45.10;;;;;;5069684;28;20720;-83
2023/05/14 09:41:51;;;;;;;5.15;4.45;;;19.70;45.10;;;;;;5085629;28;20157;-81
2023/05/14 09:44:18;;;;;;;4.30;4.00;;;19.70;45.10;;;;;;5085092;28;20145;-83
2023/05/14 09:46:45;;;;;;;4.95;4.55;;;19.70;45.10;;;;;;5084864;28;20518;-82
2023/05/14 09:49:12;;;;;;;4.60;4.20;;;19.70;45.10;;;;;;5070344;28;20185;-82
2023/05/14 09:51:40;;;;;;;4.60;4.20;;;19.70;45.00;;;;;;5069295;28;20160;-83
2023/05/14 09:54:06;;;;;;;4.88;4.47;;;19.70;44.80;;;;;;5086474;28;20243;-82
2023/05/14 09:56:33;;;;;;;4.60;4.20;;;19.80;44.80;;;;;;5068713;28;20165;-82
2023/05/14 09:59:00;;;;;;;4.50;4.10;;;19.90;44.70;;;;;;5084227;28;20210;-82
2023/05/14 10:01:28;;;;;;;4.55;4.15;;;19.90;44.90;;;;;;5068504;28;20262;-82
2023/05/14 10:03:54;;;;;;;5.53;4.20;;;19.90;44.80;;;;;;5083814;28;20157;-83
2023/05/14 10:06:25;;;;;;;4.70;4.30;;;19.80;44.70;;;;;;5084809;28;20525;-82
2023/05/14 10:08:55;;;;;;;4.75;4.35;;;19.90;44.70;;;;;;5084408;28;20188;-83
2023/05/14 10:11:25;;;;;;;5.20;4.70;;;19.80;44.60;;;;;;5100862;28;20157;-82
2023/05/14 10:14:06;;;;;;;4.70;4.30;;;19.90;44.50;;;;;;5085492;28;20161;-82
2023/05/14 10:16:37;;;;;;;4.63;4.22;;;19.90;44.50;;;;;;5070046;28;20157;-81
2023/05/14 10:19:08;;;;;;;4.18;3.88;;;19.90;44.50;;;;;;5099619;28;20597;-82
2023/05/14 10:21:36;;;;;;;4.95;4.55;;;19.90;44.40;;;;;;5087507;28;20160;-82
2023/05/14 10:24:03;;;;;;;5.95;4.47;;;19.90;44.40;;;;;;5121474;28;20618;-82
2023/05/14 10:26:30;;;;;;;4.63;4.22;;;19.90;44.40;;;;;;5121452;28;20220;-84
2023/05/14 10:28:58;;;;;;;5.35;4.45;;;19.90;44.30;;;;;;5087762;28;20164;-82
2023/05/14 10:31:46;;;;;;;4.97;4.47;;;19.90;44.20;;;;;;5121982;28;20243;-82
2023/05/14 10:34:36;;;;;;;4.35;3.95;;;20.00;44.00;;;;;;5122379;28;20156;-82
2023/05/14 10:37:03;;;;;;;4.90;4.43;;;20.10;43.70;;;;;;5120915;28;20212;-82
2023/05/14 10:39:45;;;;;;;4.43;4.03;;;20.10;43.60;;;;;;5104016;28;20657;-82
2023/05/14 10:42:13;;;;;;;5.00;4.28;;;20.10;43.60;;;;;;5120489;28;20156;-81
2023/05/14 10:44:44;;;;;;;4.35;3.95;;;20.10;43.70;;;;;;5120685;28;20197;-81
2023/05/14 10:47:11;;;;;;;4.63;4.22;;;20.10;44.20;;;;;;5122138;28;20167;-82
2023/05/14 10:49:50;;;;;;;4.50;4.10;;;20.10;43.60;;;;;;5087757;28;20164;-83
2023/05/14 10:52:18;;;;;;;4.32;3.92;;;20.20;43.50;;;;;;5105871;28;20171;-81
2023/05/14 10:55:00;;;;;;;4.30;3.90;;;20.10;43.50;;;;;;5105431;28;20235;-81
2023/05/14 10:57:27;;;;;;;4.50;4.10;;;20.10;43.50;;;;;;5103874;28;20242;-81
2023/05/14 11:00:06;;;;;;;4.65;4.25;;;20.10;43.50;;;;;;5104377;28;20218;-81
2023/05/14 11:02:42;;;;;;;4.70;4.18;;;20.10;43.60;;;;;;5105469;28;20152;-83
2023/05/14 11:05:14;;;;;;;5.85;4.10;;;20.20;43.60;;;;;;5087618;28;20297;-81
2023/05/14 11:07:43;;;;;;;4.60;4.20;;;20.20;43.40;;;;;;5119751;28;20513;-82
2023/05/14 11:10:15;;;;;;;4.70;4.30;;;20.20;43.20;;;;;;5086167;28;20547;-80
2023/05/14 11:12:43;;;;;;;4.25;3.90;;;20.30;43.30;;;;;;5104205;28;20208;-81
2023/05/14 11:15:10;;;;;;;4.10;3.70;;;20.30;43.00;;;;;;5104385;28;20148;-81
2023/05/14 11:17:37;;;;;;;4.30;3.90;;;20.30;43.00;;;;;;5122185;27;20692;-83
2023/05/14 11:20:06;;;;;;;4.20;3.75;;;20.30;43.00;;;;;;5105844;27;20661;-81
2023/05/14 11:22:33;;;;;;;4.20;3.90;;;20.40;42.90;;;;;;5105625;27;20649;-82
2023/05/14 11:24:59;;;;;;;4.15;3.78;;;20.40;42.90;;;;;;5121769;27;20165;-82
2023/05/14 11:27:28;;;;;;;4.30;3.90;;;20.40;42.90;;;;;;5105692;27;20152;-83
2023/05/14 11:29:55;;;;;;;4.38;3.97;;;20.40;42.80;;;;;;5122873;27;20520;-82
2023/05/14 11:32:21;;;;;;;5.03;4.20;;;20.30;42.90;;;;;;5103890;28;20163;-82
2023/05/14 11:34:48;;;;;;;4.30;3.90;;;20.30;42.80;;;;;;5121670;27;20148;-83
2023/05/14 11:37:14;;;;;;;4.30;3.90;;;20.40;42.90;;;;;;5122954;28;20155;-82
2023/05/14 11:39:52;;;;;;;4.43;4.03;;;20.30;42.70;;;;;;5107072;28;20294;-81
2023/05/14 11:42:18;;;;;;;3.92;3.63;;;20.30;42.70;;;;;;5143633;28;20171;-81
2023/05/14 11:44:46;;;;;;;4.63;3.90;;;20.50;42.50;;;;;;5123836;28;20147;-81
2023/05/14 11:47:12;;;;;;;5.18;4.07;;;20.50;42.50;;;;;;5105560;28;20528;-81
2023/05/14 11:49:38;;;;;;;4.90;4.35;;;20.50;42.20;;;;;;5120645;28;20155;-82
2023/05/14 11:52:05;;;;;;;4.20;3.83;;;20.50;42.20;;;;;;5120007;28;20162;-83
2023/05/14 11:54:32;;;;;;;3.85;3.50;;;20.50;42.10;;;;;;5119451;28;20237;-84
2023/05/14 11:57:01;;;;;;;4.03;3.67;;;20.50;42.20;;;;;;5122281;28;20140;-82
2023/05/14 11:59:28;;;;;;;4.45;4.10;;;20.50;42.10;;;;;;5106696;28;20195;-82
2023/05/14 12:01:54;;;;;;;4.38;3.97;;;20.50;42.10;;;;;;5106405;28;20219;-82
2023/05/14 12:04:23;;;;;;;4.30;3.90;;;20.50;42.20;;;;;;5105488;28;20162;-83
2023/05/14 12:06:49;;;;;;;4.50;4.10;;;20.50;42.20;;;;;;5122153;27;20152;-83
2023/05/14 12:09:16;;;;;;;5.35;3.95;;;20.50;42.30;;;;;;5126088;27;20198;-82
2023/05/14 12:11:43;;;;;;;4.28;3.88;;;20.50;42.00;;;;;;5126512;27;20625;-83
2023/05/14 12:14:11;;;;;;;4.10;3.80;;;20.50;42.00;;;;;;5125592;27;20179;-82
2023/05/14 12:16:39;;;;;;;4.00;3.70;;;20.50;42.10;;;;;;5125571;27;20200;-84
2023/05/14 12:19:04;;;;;;;4.00;3.70;;;20.50;42.10;;;;;;5125353;27;20685;-83
2023/05/14 12:21:31;;;;;;;4.50;4.10;;;20.40;42.00;;;;;;5126807;27;20152;-83
2023/05/14 12:23:59;;;;;;;4.10;3.70;;;20.50;42.10;;;;;;5108257;27;20171;-83
2023/05/14 12:26:26;;;;;;;3.97;3.67;;;20.40;42.00;;;;;;5107043;27;20263;-82
2023/05/14 12:28:58;;;;;;;3.80;3.50;;;20.50;41.90;;;;;;5107241;27;20545;-82
2023/05/14 12:31:32;;;;;;;3.85;3.53;;;20.50;41.80;;;;;;5124197;27;20151;-82
2023/05/14 12:33:59;;;;;;;4.15;3.85;;;20.50;41.70;;;;;;5123266;27;20155;-82
2023/05/14 12:36:25;;;;;;;4.05;3.75;;;20.60;41.70;;;;;;5122665;27;20156;-83
2023/05/14 12:38:57;;;;;;;4.28;3.42;;;20.60;41.40;;;;;;5105837;27;20209;-82
2023/05/14 12:41:23;;;;;;;3.80;3.50;;;20.70;41.30;;;;;;5120168;27;20274;-84
2023/05/14 12:43:49;;;;;;;3.70;3.40;;;20.60;42.10;;;;;;5104070;27;20156;-83
2023/05/14 12:46:15;;;;;;;3.90;3.50;;;20.60;41.30;;;;;;5103910;27;20179;-83
2023/05/14 12:48:41;;;;;;;5.03;4.20;;;20.60;41.50;;;;;;5104451;27;20178;-83